sensor_id;sensor_type;location;lat;lon;timestamp;temperature;humidity
11597;DHT22;5854;48.072;16.286;2023-04-03T00:00:52;6.00;58.10
11597;DHT22;5854;48.072;16.286;2023-04-03T00:03:24;6.10;59.10
11597;DHT22;5854;48.072;16.286;2023-04-03T00:06:00;6.00;59.00
11597;DHT22;5854;48.072;16.286;2023-04-03T00:08:43;5.90;58.40
11597;DHT22;5854;48.072;16.286;2023-04-03T00:11:22;5.90;60.20
11597;DHT22;5854;48.072;16.286;2023-04-03T00:13:55;5.90;59.50
11597;DHT22;5854;48.072;16.286;2023-04-03T00:16:26;5.90;59.10
11597;DHT22;5854;48.072;16.286;2023-04-03T00:18:54;5.80;59.50
11597;DHT22;5854;48.072;16.286;2023-04-03T00:21:27;5.70;58.30
11597;DHT22;5854;48.072;16.286;2023-04-03T00:23:56;5.90;62.40
11597;DHT22;5854;48.072;16.286;2023-04-03T00:26:30;6.10;58.70
11597;DHT22;5854;48.072;16.286;2023-04-03T00:29:00;6.10;58.80
11597;DHT22;5854;48.072;16.286;2023-04-03T00:31:36;6.10;59.20
11597;DHT22;5854;48.072;16.286;2023-04-03T00:34:05;6.00;58.70
11597;DHT22;5854;48.072;16.286;2023-04-03T00:36:33;6.00;59.40
11597;DHT22;5854;48.072;16.286;2023-04-03T00:39:00;5.90;56.20
11597;DHT22;5854;48.072;16.286;2023-04-03T00:41:32;6.00;58.30
11597;DHT22;5854;48.072;16.286;2023-04-03T00:44:00;5.80;57.40
11597;DHT22;5854;48.072;16.286;2023-04-03T00:46:30;5.90;59.10
11597;DHT22;5854;48.072;16.286;2023-04-03T00:48:57;5.90;60.70
11597;DHT22;5854;48.072;16.286;2023-04-03T00:51:25;6.00;61.10
11597;DHT22;5854;48.072;16.286;2023-04-03T00:53:55;5.80;57.40
11597;DHT22;5854;48.072;16.286;2023-04-03T00:56:27;5.80;60.70
11597;DHT22;5854;48.072;16.286;2023-04-03T00:59:11;5.80;57.90
11597;DHT22;5854;48.072;16.286;2023-04-03T01:01:41;5.70;56.20
11597;DHT22;5854;48.072;16.286;2023-04-03T01:04:27;5.70;60.50
11597;DHT22;5854;48.072;16.286;2023-04-03T01:06:56;5.60;59.30
11597;DHT22;5854;48.072;16.286;2023-04-03T01:09:28;5.70;58.60
11597;DHT22;5854;48.072;16.286;2023-04-03T01:12:14;5.60;60.30
11597;DHT22;5854;48.072;16.286;2023-04-03T01:14:44;5.80;58.60
11597;DHT22;5854;48.072;16.286;2023-04-03T01:17:28;5.60;59.70
11597;DHT22;5854;48.072;16.286;2023-04-03T01:20:18;5.70;61.90
11597;DHT22;5854;48.072;16.286;2023-04-03T01:23:20;5.80;59.90
11597;DHT22;5854;48.072;16.286;2023-04-03T01:25:54;5.90;60.20
11597;DHT22;5854;48.072;16.286;2023-04-03T01:28:24;6.00;61.60
11597;DHT22;5854;48.072;16.286;2023-04-03T01:31:00;5.80;57.60
11597;DHT22;5854;48.072;16.286;2023-04-03T01:33:34;5.60;60.30
11597;DHT22;5854;48.072;16.286;2023-04-03T01:36:01;5.60;61.50
11597;DHT22;5854;48.072;16.286;2023-04-03T01:38:29;5.60;62.80
11597;DHT22;5854;48.072;16.286;2023-04-03T01:40:56;5.80;59.80
11597;DHT22;5854;48.072;16.286;2023-04-03T01:43:25;5.80;61.20
11597;DHT22;5854;48.072;16.286;2023-04-03T01:45:53;5.80;61.40
11597;DHT22;5854;48.072;16.286;2023-04-03T01:48:20;5.80;60.30
11597;DHT22;5854;48.072;16.286;2023-04-03T01:50:49;5.80;61.80
11597;DHT22;5854;48.072;16.286;2023-04-03T01:53:16;6.00;60.10
11597;DHT22;5854;48.072;16.286;2023-04-03T01:55:44;5.70;59.00
11597;DHT22;5854;48.072;16.286;2023-04-03T01:58:11;5.70;61.80
11597;DHT22;5854;48.072;16.286;2023-04-03T02:00:38;5.70;60.00
11597;DHT22;5854;48.072;16.286;2023-04-03T02:03:05;5.60;61.10
11597;DHT22;5854;48.072;16.286;2023-04-03T02:05:32;5.60;60.70
11597;DHT22;5854;48.072;16.286;2023-04-03T02:08:01;5.50;59.70
11597;DHT22;5854;48.072;16.286;2023-04-03T02:10:30;5.60;62.20
11597;DHT22;5854;48.072;16.286;2023-04-03T02:12:59;5.60;62.30
11597;DHT22;5854;48.072;16.286;2023-04-03T02:15:26;5.70;60.10
11597;DHT22;5854;48.072;16.286;2023-04-03T02:17:53;5.70;60.70
11597;DHT22;5854;48.072;16.286;2023-04-03T02:20:21;5.50;61.00
11597;DHT22;5854;48.072;16.286;2023-04-03T02:22:50;5.60;59.40
11597;DHT22;5854;48.072;16.286;2023-04-03T02:25:18;5.60;62.30
11597;DHT22;5854;48.072;16.286;2023-04-03T02:27:46;5.70;61.80
11597;DHT22;5854;48.072;16.286;2023-04-03T02:30:13;5.70;61.30
11597;DHT22;5854;48.072;16.286;2023-04-03T02:32:41;5.50;59.10
11597;DHT22;5854;48.072;16.286;2023-04-03T02:35:09;5.40;60.60
11597;DHT22;5854;48.072;16.286;2023-04-03T02:37:36;5.40;61.50
11597;DHT22;5854;48.072;16.286;2023-04-03T02:40:05;5.40;61.90
11597;DHT22;5854;48.072;16.286;2023-04-03T02:42:34;5.60;60.90
11597;DHT22;5854;48.072;16.286;2023-04-03T02:45:02;5.50;60.50
11597;DHT22;5854;48.072;16.286;2023-04-03T02:47:29;5.50;61.50
11597;DHT22;5854;48.072;16.286;2023-04-03T02:49:56;5.50;61.80
11597;DHT22;5854;48.072;16.286;2023-04-03T02:52:24;5.50;59.90
11597;DHT22;5854;48.072;16.286;2023-04-03T02:54:51;5.40;61.00
11597;DHT22;5854;48.072;16.286;2023-04-03T02:57:18;5.50;62.20
11597;DHT22;5854;48.072;16.286;2023-04-03T02:59:47;5.60;63.00
11597;DHT22;5854;48.072;16.286;2023-04-03T03:02:14;5.60;61.70
11597;DHT22;5854;48.072;16.286;2023-04-03T03:04:41;5.60;62.00
11597;DHT22;5854;48.072;16.286;2023-04-03T03:07:09;5.60;60.80
11597;DHT22;5854;48.072;16.286;2023-04-03T03:09:36;5.70;59.00
11597;DHT22;5854;48.072;16.286;2023-04-03T03:12:04;5.50;60.10
11597;DHT22;5854;48.072;16.286;2023-04-03T03:14:31;5.50;59.90
11597;DHT22;5854;48.072;16.286;2023-04-03T03:17:00;5.60;60.60
11597;DHT22;5854;48.072;16.286;2023-04-03T03:19:27;5.60;60.80
11597;DHT22;5854;48.072;16.286;2023-04-03T03:21:54;5.70;61.70
11597;DHT22;5854;48.072;16.286;2023-04-03T03:24:22;5.70;60.00
11597;DHT22;5854;48.072;16.286;2023-04-03T03:26:49;5.60;60.10
11597;DHT22;5854;48.072;16.286;2023-04-03T03:29:16;5.50;58.80
11597;DHT22;5854;48.072;16.286;2023-04-03T03:31:44;5.50;61.10
11597;DHT22;5854;48.072;16.286;2023-04-03T03:34:12;5.60;60.40
11597;DHT22;5854;48.072;16.286;2023-04-03T03:36:39;5.50;60.80
11597;DHT22;5854;48.072;16.286;2023-04-03T03:39:07;5.50;59.10
11597;DHT22;5854;48.072;16.286;2023-04-03T03:41:34;5.40;60.80
11597;DHT22;5854;48.072;16.286;2023-04-03T03:44:01;5.40;59.80
11597;DHT22;5854;48.072;16.286;2023-04-03T03:46:28;5.40;61.90
11597;DHT22;5854;48.072;16.286;2023-04-03T03:48:56;5.40;60.30
11597;DHT22;5854;48.072;16.286;2023-04-03T03:51:24;5.40;59.80
11597;DHT22;5854;48.072;16.286;2023-04-03T03:53:51;5.50;61.00
11597;DHT22;5854;48.072;16.286;2023-04-03T03:56:18;5.50;60.30
11597;DHT22;5854;48.072;16.286;2023-04-03T03:58:46;5.40;60.40
11597;DHT22;5854;48.072;16.286;2023-04-03T04:01:13;5.40;61.10
11597;DHT22;5854;48.072;16.286;2023-04-03T04:03:52;5.30;60.40
11597;DHT22;5854;48.072;16.286;2023-04-03T04:06:37;5.40;60.30
11597;DHT22;5854;48.072;16.286;2023-04-03T04:09:06;5.30;61.30
11597;DHT22;5854;48.072;16.286;2023-04-03T04:11:45;5.20;60.90
11597;DHT22;5854;48.072;16.286;2023-04-03T04:14:16;5.30;62.10
11597;DHT22;5854;48.072;16.286;2023-04-03T04:16:48;5.30;60.80
11597;DHT22;5854;48.072;16.286;2023-04-03T04:19:21;5.30;59.40
11597;DHT22;5854;48.072;16.286;2023-04-03T04:22:12;5.30;61.50
11597;DHT22;5854;48.072;16.286;2023-04-03T04:24:50;5.30;60.70
11597;DHT22;5854;48.072;16.286;2023-04-03T04:27:27;5.30;61.40
11597;DHT22;5854;48.072;16.286;2023-04-03T04:29:59;5.40;59.00
11597;DHT22;5854;48.072;16.286;2023-04-03T04:33:01;5.30;61.90
11597;DHT22;5854;48.072;16.286;2023-04-03T04:35:41;5.40;60.20
11597;DHT22;5854;48.072;16.286;2023-04-03T04:38:15;5.50;59.50
11597;DHT22;5854;48.072;16.286;2023-04-03T04:40:44;5.30;58.50
11597;DHT22;5854;48.072;16.286;2023-04-03T04:43:11;5.30;61.30
11597;DHT22;5854;48.072;16.286;2023-04-03T04:45:48;5.50;60.30
11597;DHT22;5854;48.072;16.286;2023-04-03T04:48:24;5.40;59.70
11597;DHT22;5854;48.072;16.286;2023-04-03T04:50:58;5.40;59.50
11597;DHT22;5854;48.072;16.286;2023-04-03T04:53:41;5.40;59.50
11597;DHT22;5854;48.072;16.286;2023-04-03T04:56:19;5.40;59.20
11597;DHT22;5854;48.072;16.286;2023-04-03T04:58:51;5.30;60.80
11597;DHT22;5854;48.072;16.286;2023-04-03T05:01:18;5.40;60.60
11597;DHT22;5854;48.072;16.286;2023-04-03T05:03:58;5.30;60.20
11597;DHT22;5854;48.072;16.286;2023-04-03T05:06:39;5.30;59.60
11597;DHT22;5854;48.072;16.286;2023-04-03T05:09:13;5.30;60.70
11597;DHT22;5854;48.072;16.286;2023-04-03T05:11:49;5.20;60.10
11597;DHT22;5854;48.072;16.286;2023-04-03T05:14:19;5.40;61.70
11597;DHT22;5854;48.072;16.286;2023-04-03T05:16:50;5.40;60.30
11597;DHT22;5854;48.072;16.286;2023-04-03T05:19:25;5.40;60.20
11597;DHT22;5854;48.072;16.286;2023-04-03T05:22:07;5.40;59.40
11597;DHT22;5854;48.072;16.286;2023-04-03T05:24:43;5.40;60.00
11597;DHT22;5854;48.072;16.286;2023-04-03T05:27:12;5.40;60.50
11597;DHT22;5854;48.072;16.286;2023-04-03T05:29:39;5.40;59.80
11597;DHT22;5854;48.072;16.286;2023-04-03T05:32:09;5.40;58.50
11597;DHT22;5854;48.072;16.286;2023-04-03T05:34:36;5.20;59.30
11597;DHT22;5854;48.072;16.286;2023-04-03T05:37:04;5.20;59.40
11597;DHT22;5854;48.072;16.286;2023-04-03T05:39:33;5.20;58.90
11597;DHT22;5854;48.072;16.286;2023-04-03T05:42:02;5.20;58.80
11597;DHT22;5854;48.072;16.286;2023-04-03T05:44:29;5.30;59.40
11597;DHT22;5854;48.072;16.286;2023-04-03T05:47:06;5.30;57.90
11597;DHT22;5854;48.072;16.286;2023-04-03T05:49:36;5.30;59.40
11597;DHT22;5854;48.072;16.286;2023-04-03T05:52:21;5.30;58.50
11597;DHT22;5854;48.072;16.286;2023-04-03T05:55:11;5.30;59.40
11597;DHT22;5854;48.072;16.286;2023-04-03T05:57:55;5.30;58.70
11597;DHT22;5854;48.072;16.286;2023-04-03T06:00:27;5.20;58.60
11597;DHT22;5854;48.072;16.286;2023-04-03T06:03:03;5.20;56.80
11597;DHT22;5854;48.072;16.286;2023-04-03T06:05:30;5.30;64.20
11597;DHT22;5854;48.072;16.286;2023-04-03T06:08:00;5.40;57.00
11597;DHT22;5854;48.072;16.286;2023-04-03T06:10:29;5.30;57.80
11597;DHT22;5854;48.072;16.286;2023-04-03T06:12:57;5.30;56.90
11597;DHT22;5854;48.072;16.286;2023-04-03T06:15:25;5.30;57.10
11597;DHT22;5854;48.072;16.286;2023-04-03T06:17:52;5.40;57.40
11597;DHT22;5854;48.072;16.286;2023-04-03T06:20:19;5.50;58.60
11597;DHT22;5854;48.072;16.286;2023-04-03T06:22:47;5.60;60.20
11597;DHT22;5854;48.072;16.286;2023-04-03T06:25:15;5.70;56.00
11597;DHT22;5854;48.072;16.286;2023-04-03T06:27:52;5.50;56.00
11597;DHT22;5854;48.072;16.286;2023-04-03T06:30:22;5.40;56.60
11597;DHT22;5854;48.072;16.286;2023-04-03T06:33:18;5.40;57.60
11597;DHT22;5854;48.072;16.286;2023-04-03T06:35:56;5.40;57.50
11597;DHT22;5854;48.072;16.286;2023-04-03T06:38:24;5.30;57.70
11597;DHT22;5854;48.072;16.286;2023-04-03T06:40:51;5.20;57.20
11597;DHT22;5854;48.072;16.286;2023-04-03T06:43:19;5.20;57.50
11597;DHT22;5854;48.072;16.286;2023-04-03T06:45:48;5.30;56.40
11597;DHT22;5854;48.072;16.286;2023-04-03T06:48:16;5.30;57.40
11597;DHT22;5854;48.072;16.286;2023-04-03T06:50:43;5.20;55.20
11597;DHT22;5854;48.072;16.286;2023-04-03T06:53:10;5.10;57.30
11597;DHT22;5854;48.072;16.286;2023-04-03T06:55:37;5.20;55.90
11597;DHT22;5854;48.072;16.286;2023-04-03T06:58:05;5.30;56.00
11597;DHT22;5854;48.072;16.286;2023-04-03T07:00:33;5.30;57.50
11597;DHT22;5854;48.072;16.286;2023-04-03T07:03:01;5.30;55.20
11597;DHT22;5854;48.072;16.286;2023-04-03T07:05:28;5.40;58.10
11597;DHT22;5854;48.072;16.286;2023-04-03T07:07:56;5.40;54.50
11597;DHT22;5854;48.072;16.286;2023-04-03T07:10:23;5.40;56.20
11597;DHT22;5854;48.072;16.286;2023-04-03T07:12:50;5.30;56.40
11597;DHT22;5854;48.072;16.286;2023-04-03T07:15:18;5.30;55.90
11597;DHT22;5854;48.072;16.286;2023-04-03T07:17:45;5.40;57.90
11597;DHT22;5854;48.072;16.286;2023-04-03T07:20:13;5.40;56.30
11597;DHT22;5854;48.072;16.286;2023-04-03T07:22:41;5.40;57.30
11597;DHT22;5854;48.072;16.286;2023-04-03T07:25:08;5.50;56.90
11597;DHT22;5854;48.072;16.286;2023-04-03T07:27:36;5.50;54.00
11597;DHT22;5854;48.072;16.286;2023-04-03T07:30:03;5.50;54.20
11597;DHT22;5854;48.072;16.286;2023-04-03T07:32:32;5.50;55.20
11597;DHT22;5854;48.072;16.286;2023-04-03T07:34:59;5.40;54.10
11597;DHT22;5854;48.072;16.286;2023-04-03T07:37:27;5.50;54.80
11597;DHT22;5854;48.072;16.286;2023-04-03T07:39:54;5.70;55.80
11597;DHT22;5854;48.072;16.286;2023-04-03T07:42:22;5.70;54.60
11597;DHT22;5854;48.072;16.286;2023-04-03T07:44:50;5.80;54.00
11597;DHT22;5854;48.072;16.286;2023-04-03T07:47:17;5.80;53.10
11597;DHT22;5854;48.072;16.286;2023-04-03T07:49:44;6.00;54.30
11597;DHT22;5854;48.072;16.286;2023-04-03T07:52:11;6.10;52.90
11597;DHT22;5854;48.072;16.286;2023-04-03T07:54:41;6.20;51.30
11597;DHT22;5854;48.072;16.286;2023-04-03T07:57:08;6.40;52.10
11597;DHT22;5854;48.072;16.286;2023-04-03T07:59:36;6.40;52.20
11597;DHT22;5854;48.072;16.286;2023-04-03T08:02:03;6.40;51.20
11597;DHT22;5854;48.072;16.286;2023-04-03T08:04:30;6.40;50.00
11597;DHT22;5854;48.072;16.286;2023-04-03T08:06:57;6.40;50.70
11597;DHT22;5854;48.072;16.286;2023-04-03T08:09:24;6.50;51.40
11597;DHT22;5854;48.072;16.286;2023-04-03T08:11:53;6.50;50.10
11597;DHT22;5854;48.072;16.286;2023-04-03T08:14:20;6.40;51.20
11597;DHT22;5854;48.072;16.286;2023-04-03T08:16:48;6.20;48.70
11597;DHT22;5854;48.072;16.286;2023-04-03T08:19:15;6.10;49.90
11597;DHT22;5854;48.072;16.286;2023-04-03T08:21:43;6.00;52.40
11597;DHT22;5854;48.072;16.286;2023-04-03T08:24:12;5.90;51.90
11597;DHT22;5854;48.072;16.286;2023-04-03T08:26:39;5.90;53.30
11597;DHT22;5854;48.072;16.286;2023-04-03T08:29:07;6.10;50.70
11597;DHT22;5854;48.072;16.286;2023-04-03T08:31:34;6.10;52.40
11597;DHT22;5854;48.072;16.286;2023-04-03T08:34:02;6.00;51.20
11597;DHT22;5854;48.072;16.286;2023-04-03T08:36:29;6.30;49.30
11597;DHT22;5854;48.072;16.286;2023-04-03T08:38:57;6.30;50.10
11597;DHT22;5854;48.072;16.286;2023-04-03T08:41:31;6.30;47.70
11597;DHT22;5854;48.072;16.286;2023-04-03T08:44:15;6.30;48.90
11597;DHT22;5854;48.072;16.286;2023-04-03T08:47:01;6.30;48.30
11597;DHT22;5854;48.072;16.286;2023-04-03T08:49:33;6.30;49.50
11597;DHT22;5854;48.072;16.286;2023-04-03T08:52:04;6.20;48.80
11597;DHT22;5854;48.072;16.286;2023-04-03T08:54:44;6.10;46.10
11597;DHT22;5854;48.072;16.286;2023-04-03T08:57:17;6.10;47.60
11597;DHT22;5854;48.072;16.286;2023-04-03T08:59:50;6.10;48.30
11597;DHT22;5854;48.072;16.286;2023-04-03T09:02:24;6.40;48.90
11597;DHT22;5854;48.072;16.286;2023-04-03T09:04:53;6.40;44.60
11597;DHT22;5854;48.072;16.286;2023-04-03T09:07:30;6.40;49.50
11597;DHT22;5854;48.072;16.286;2023-04-03T09:10:00;6.50;49.60
11597;DHT22;5854;48.072;16.286;2023-04-03T09:12:33;6.70;47.90
11597;DHT22;5854;48.072;16.286;2023-04-03T09:15:10;6.80;49.00
11597;DHT22;5854;48.072;16.286;2023-04-03T09:17:53;6.80;42.20
11597;DHT22;5854;48.072;16.286;2023-04-03T09:20:33;6.70;42.30
11597;DHT22;5854;48.072;16.286;2023-04-03T09:23:16;6.60;46.60
11597;DHT22;5854;48.072;16.286;2023-04-03T09:25:46;6.50;42.90
11597;DHT22;5854;48.072;16.286;2023-04-03T09:28:14;6.50;48.50
11597;DHT22;5854;48.072;16.286;2023-04-03T09:30:42;6.30;45.70
11597;DHT22;5854;48.072;16.286;2023-04-03T09:33:10;6.40;48.40
11597;DHT22;5854;48.072;16.286;2023-04-03T09:35:40;6.50;44.60
11597;DHT22;5854;48.072;16.286;2023-04-03T09:38:19;6.70;45.40
11597;DHT22;5854;48.072;16.286;2023-04-03T09:40:49;6.80;43.30
11597;DHT22;5854;48.072;16.286;2023-04-03T09:43:28;6.70;45.10
11597;DHT22;5854;48.072;16.286;2023-04-03T09:46:28;6.60;46.40
11597;DHT22;5854;48.072;16.286;2023-04-03T09:48:58;6.50;48.20
11597;DHT22;5854;48.072;16.286;2023-04-03T09:51:26;6.40;44.30
11597;DHT22;5854;48.072;16.286;2023-04-03T09:53:55;6.30;44.00
11597;DHT22;5854;48.072;16.286;2023-04-03T09:56:25;6.30;45.90
11597;DHT22;5854;48.072;16.286;2023-04-03T09:59:11;6.30;46.10
11597;DHT22;5854;48.072;16.286;2023-04-03T10:01:57;6.30;49.00
11597;DHT22;5854;48.072;16.286;2023-04-03T10:04:37;6.40;44.20
11597;DHT22;5854;48.072;16.286;2023-04-03T10:07:30;6.50;41.70
11597;DHT22;5854;48.072;16.286;2023-04-03T10:10:03;6.60;40.20
11597;DHT22;5854;48.072;16.286;2023-04-03T10:12:45;6.70;39.20
11597;DHT22;5854;48.072;16.286;2023-04-03T10:15:14;6.80;43.10
11597;DHT22;5854;48.072;16.286;2023-04-03T10:17:51;6.80;38.90
11597;DHT22;5854;48.072;16.286;2023-04-03T10:20:33;6.80;37.90
11597;DHT22;5854;48.072;16.286;2023-04-03T10:23:15;6.70;43.60
11597;DHT22;5854;48.072;16.286;2023-04-03T10:25:59;6.80;42.30
11597;DHT22;5854;48.072;16.286;2023-04-03T10:28:39;6.80;38.60
11597;DHT22;5854;48.072;16.286;2023-04-03T10:31:14;6.80;38.30
11597;DHT22;5854;48.072;16.286;2023-04-03T10:33:56;6.70;40.60
11597;DHT22;5854;48.072;16.286;2023-04-03T10:36:34;6.80;40.80
11597;DHT22;5854;48.072;16.286;2023-04-03T10:39:14;6.90;41.40
11597;DHT22;5854;48.072;16.286;2023-04-03T10:41:56;6.90;43.20
11597;DHT22;5854;48.072;16.286;2023-04-03T10:44:32;7.20;45.50
11597;DHT22;5854;48.072;16.286;2023-04-03T10:47:08;7.10;46.40
11597;DHT22;5854;48.072;16.286;2023-04-03T10:49:45;7.30;43.00
11597;DHT22;5854;48.072;16.286;2023-04-03T10:52:22;7.40;42.90
11597;DHT22;5854;48.072;16.286;2023-04-03T10:55:04;7.10;39.90
11597;DHT22;5854;48.072;16.286;2023-04-03T10:57:38;6.90;42.40
11597;DHT22;5854;48.072;16.286;2023-04-03T11:00:15;6.70;43.90
11597;DHT22;5854;48.072;16.286;2023-04-03T11:02:49;6.60;41.80
11597;DHT22;5854;48.072;16.286;2023-04-03T11:05:25;6.70;46.60
11597;DHT22;5854;48.072;16.286;2023-04-03T11:07:56;6.80;45.10
11597;DHT22;5854;48.072;16.286;2023-04-03T11:10:36;7.00;43.60
11597;DHT22;5854;48.072;16.286;2023-04-03T11:13:11;7.20;44.60
11597;DHT22;5854;48.072;16.286;2023-04-03T11:15:41;7.30;40.40
11597;DHT22;5854;48.072;16.286;2023-04-03T11:18:12;7.40;42.20
11597;DHT22;5854;48.072;16.286;2023-04-03T11:20:47;7.30;38.60
11597;DHT22;5854;48.072;16.286;2023-04-03T11:23:21;7.20;39.60
11597;DHT22;5854;48.072;16.286;2023-04-03T11:25:54;7.20;39.40
11597;DHT22;5854;48.072;16.286;2023-04-03T11:28:26;6.90;40.80
11597;DHT22;5854;48.072;16.286;2023-04-03T11:30:59;6.80;39.50
11597;DHT22;5854;48.072;16.286;2023-04-03T11:33:45;6.90;43.70
11597;DHT22;5854;48.072;16.286;2023-04-03T11:36:22;6.90;39.40
11597;DHT22;5854;48.072;16.286;2023-04-03T11:38:54;6.80;39.70
11597;DHT22;5854;48.072;16.286;2023-04-03T11:41:28;6.90;43.10
11597;DHT22;5854;48.072;16.286;2023-04-03T11:43:58;6.80;41.10
11597;DHT22;5854;48.072;16.286;2023-04-03T11:46:51;6.90;39.20
11597;DHT22;5854;48.072;16.286;2023-04-03T11:49:54;6.90;36.60
11597;DHT22;5854;48.072;16.286;2023-04-03T11:52:55;6.90;40.20
11597;DHT22;5854;48.072;16.286;2023-04-03T11:55:54;6.80;37.50
11597;DHT22;5854;48.072;16.286;2023-04-03T11:58:32;6.90;42.50
11597;DHT22;5854;48.072;16.286;2023-04-03T12:01:08;7.00;40.10
11597;DHT22;5854;48.072;16.286;2023-04-03T12:04:10;6.80;37.20
11597;DHT22;5854;48.072;16.286;2023-04-03T12:10:17;6.80;41.60
11597;DHT22;5854;48.072;16.286;2023-04-03T12:13:12;6.90;40.70
11597;DHT22;5854;48.072;16.286;2023-04-03T12:15:51;7.10;37.80
11597;DHT22;5854;48.072;16.286;2023-04-03T12:18:57;7.00;37.90
11597;DHT22;5854;48.072;16.286;2023-04-03T12:22:08;7.10;39.30
11597;DHT22;5854;48.072;16.286;2023-04-03T12:24:48;7.10;38.40
11597;DHT22;5854;48.072;16.286;2023-04-03T12:27:29;7.10;40.80
11597;DHT22;5854;48.072;16.286;2023-04-03T12:30:19;7.00;42.10
11597;DHT22;5854;48.072;16.286;2023-04-03T12:33:17;6.90;39.90
11597;DHT22;5854;48.072;16.286;2023-04-03T12:35:57;6.70;36.60
11597;DHT22;5854;48.072;16.286;2023-04-03T12:38:58;6.50;39.40
11597;DHT22;5854;48.072;16.286;2023-04-03T12:41:37;6.60;41.50
11597;DHT22;5854;48.072;16.286;2023-04-03T12:44:33;6.70;41.70
11597;DHT22;5854;48.072;16.286;2023-04-03T12:47:21;6.90;41.00
11597;DHT22;5854;48.072;16.286;2023-04-03T12:49:52;6.80;40.10
11597;DHT22;5854;48.072;16.286;2023-04-03T12:52:31;6.90;43.50
11597;DHT22;5854;48.072;16.286;2023-04-03T12:55:07;6.90;38.80
11597;DHT22;5854;48.072;16.286;2023-04-03T12:57:38;6.70;37.70
11597;DHT22;5854;48.072;16.286;2023-04-03T13:00:20;6.70;42.50
11597;DHT22;5854;48.072;16.286;2023-04-03T13:02:49;6.70;45.20
11597;DHT22;5854;48.072;16.286;2023-04-03T13:05:19;6.60;37.80
11597;DHT22;5854;48.072;16.286;2023-04-03T13:07:49;6.60;43.50
11597;DHT22;5854;48.072;16.286;2023-04-03T13:10:18;6.60;39.80
11597;DHT22;5854;48.072;16.286;2023-04-03T13:12:49;6.70;37.60
11597;DHT22;5854;48.072;16.286;2023-04-03T13:15:18;6.60;40.60
11597;DHT22;5854;48.072;16.286;2023-04-03T13:17:48;6.70;37.70
11597;DHT22;5854;48.072;16.286;2023-04-03T13:20:23;6.80;42.60
11597;DHT22;5854;48.072;16.286;2023-04-03T13:22:58;6.90;40.90
11597;DHT22;5854;48.072;16.286;2023-04-03T13:25:29;6.90;43.60
11597;DHT22;5854;48.072;16.286;2023-04-03T13:27:59;7.10;36.70
11597;DHT22;5854;48.072;16.286;2023-04-03T13:30:30;7.20;37.30
11597;DHT22;5854;48.072;16.286;2023-04-03T13:33:01;7.10;42.70
11597;DHT22;5854;48.072;16.286;2023-04-03T13:35:37;7.00;35.10
11597;DHT22;5854;48.072;16.286;2023-04-03T13:38:20;7.00;33.90
11597;DHT22;5854;48.072;16.286;2023-04-03T13:40:52;7.20;38.10
11597;DHT22;5854;48.072;16.286;2023-04-03T13:43:23;7.10;36.80
11597;DHT22;5854;48.072;16.286;2023-04-03T13:45:57;7.20;37.10
11597;DHT22;5854;48.072;16.286;2023-04-03T13:48:39;7.10;40.80
11597;DHT22;5854;48.072;16.286;2023-04-03T13:51:19;7.00;39.20
11597;DHT22;5854;48.072;16.286;2023-04-03T13:53:50;6.80;35.60
11597;DHT22;5854;48.072;16.286;2023-04-03T13:56:26;6.80;40.90
11597;DHT22;5854;48.072;16.286;2023-04-03T13:59:01;6.80;38.80
11597;DHT22;5854;48.072;16.286;2023-04-03T14:01:50;7.10;33.70
11597;DHT22;5854;48.072;16.286;2023-04-03T14:04:21;7.30;38.70
11597;DHT22;5854;48.072;16.286;2023-04-03T14:06:51;7.30;39.90
11597;DHT22;5854;48.072;16.286;2023-04-03T14:09:19;7.40;34.40
11597;DHT22;5854;48.072;16.286;2023-04-03T14:11:48;7.30;32.50
11597;DHT22;5854;48.072;16.286;2023-04-03T14:14:20;7.20;33.00
11597;DHT22;5854;48.072;16.286;2023-04-03T14:16:52;7.30;41.90
11597;DHT22;5854;48.072;16.286;2023-04-03T14:19:22;7.20;38.80
11597;DHT22;5854;48.072;16.286;2023-04-03T14:21:53;7.10;42.30
11597;DHT22;5854;48.072;16.286;2023-04-03T14:24:22;7.20;38.30
11597;DHT22;5854;48.072;16.286;2023-04-03T14:26:50;7.20;39.50
11597;DHT22;5854;48.072;16.286;2023-04-03T14:29:19;7.00;36.10
11597;DHT22;5854;48.072;16.286;2023-04-03T14:31:48;6.90;40.70
11597;DHT22;5854;48.072;16.286;2023-04-03T14:34:16;6.80;38.50
11597;DHT22;5854;48.072;16.286;2023-04-03T14:36:44;7.00;37.80
11597;DHT22;5854;48.072;16.286;2023-04-03T14:39:17;7.10;37.70
11597;DHT22;5854;48.072;16.286;2023-04-03T14:41:46;7.30;40.90
11597;DHT22;5854;48.072;16.286;2023-04-03T14:44:13;7.30;39.00
11597;DHT22;5854;48.072;16.286;2023-04-03T14:46:43;7.20;38.00
11597;DHT22;5854;48.072;16.286;2023-04-03T14:49:14;7.10;41.80
11597;DHT22;5854;48.072;16.286;2023-04-03T14:51:42;7.10;43.90
11597;DHT22;5854;48.072;16.286;2023-04-03T14:54:14;7.10;38.70
11597;DHT22;5854;48.072;16.286;2023-04-03T14:56:47;7.00;40.00
11597;DHT22;5854;48.072;16.286;2023-04-03T14:59:20;6.90;43.40
11597;DHT22;5854;48.072;16.286;2023-04-03T15:01:50;6.80;39.70
11597;DHT22;5854;48.072;16.286;2023-04-03T15:04:20;6.80;42.70
11597;DHT22;5854;48.072;16.286;2023-04-03T15:06:51;6.80;37.90
11597;DHT22;5854;48.072;16.286;2023-04-03T15:09:25;6.80;39.20
11597;DHT22;5854;48.072;16.286;2023-04-03T15:11:54;6.80;37.00
11597;DHT22;5854;48.072;16.286;2023-04-03T15:14:22;6.60;36.80
11597;DHT22;5854;48.072;16.286;2023-04-03T15:16:49;6.50;40.80
11597;DHT22;5854;48.072;16.286;2023-04-03T15:19:16;6.40;39.50
11597;DHT22;5854;48.072;16.286;2023-04-03T15:21:43;6.50;38.90
11597;DHT22;5854;48.072;16.286;2023-04-03T15:24:10;6.50;39.80
11597;DHT22;5854;48.072;16.286;2023-04-03T15:26:39;6.50;41.10
11597;DHT22;5854;48.072;16.286;2023-04-03T15:29:07;6.50;38.50
11597;DHT22;5854;48.072;16.286;2023-04-03T15:31:34;6.40;41.40
11597;DHT22;5854;48.072;16.286;2023-04-03T15:34:03;6.40;42.70
11597;DHT22;5854;48.072;16.286;2023-04-03T15:36:33;6.50;44.50
11597;DHT22;5854;48.072;16.286;2023-04-03T15:39:00;6.40;44.60
11597;DHT22;5854;48.072;16.286;2023-04-03T15:41:27;6.60;41.80
11597;DHT22;5854;48.072;16.286;2023-04-03T15:43:55;6.50;41.10
11597;DHT22;5854;48.072;16.286;2023-04-03T15:46:23;6.40;39.00
11597;DHT22;5854;48.072;16.286;2023-04-03T15:48:50;6.30;45.20
11597;DHT22;5854;48.072;16.286;2023-04-03T15:51:17;6.40;40.10
11597;DHT22;5854;48.072;16.286;2023-04-03T15:53:44;6.20;37.20
11597;DHT22;5854;48.072;16.286;2023-04-03T15:56:12;6.20;37.70
11597;DHT22;5854;48.072;16.286;2023-04-03T15:58:39;6.20;36.00
11597;DHT22;5854;48.072;16.286;2023-04-03T16:01:09;6.20;40.10
11597;DHT22;5854;48.072;16.286;2023-04-03T16:03:37;6.30;45.50
11597;DHT22;5854;48.072;16.286;2023-04-03T16:06:10;6.40;39.80
11597;DHT22;5854;48.072;16.286;2023-04-03T16:08:38;6.50;38.30
11597;DHT22;5854;48.072;16.286;2023-04-03T16:11:05;6.40;37.20
11597;DHT22;5854;48.072;16.286;2023-04-03T16:13:32;6.20;38.30
11597;DHT22;5854;48.072;16.286;2023-04-03T16:16:00;6.20;39.40
11597;DHT22;5854;48.072;16.286;2023-04-03T16:18:29;6.30;43.30
11597;DHT22;5854;48.072;16.286;2023-04-03T16:20:57;6.30;45.80
11597;DHT22;5854;48.072;16.286;2023-04-03T16:23:24;6.30;35.60